createdAt,value
2023-03-30T00:01:15.440Z,100.00
2023-03-30T00:03:43.410Z,100.00
2023-03-30T00:06:11.608Z,100.00
2023-03-30T00:08:38.627Z,100.00
2023-03-30T00:11:17.284Z,100.00
2023-03-30T00:13:44.966Z,100.00
2023-03-30T00:16:14.061Z,100.00
2023-03-30T00:18:42.547Z,100.00
2023-03-30T00:21:11.967Z,100.00
2023-03-30T00:23:39.625Z,100.00
2023-03-30T00:26:07.792Z,100.00
2023-03-30T00:28:34.813Z,100.00
2023-03-30T00:31:03.638Z,100.00
2023-03-30T00:33:44.721Z,100.00
2023-03-30T00:36:17.678Z,100.00
2023-03-30T00:38:45.688Z,100.00
2023-03-30T00:41:12.719Z,100.00
2023-03-30T00:44:02.348Z,100.00
2023-03-30T00:46:32.320Z,100.00
2023-03-30T00:49:06.465Z,100.00
2023-03-30T00:51:37.498Z,100.00
2023-03-30T00:54:10.488Z,100.00
2023-03-30T00:56:37.605Z,100.00
2023-03-30T00:59:05.128Z,100.00
2023-03-30T01:01:38.632Z,100.00
2023-03-30T01:04:08.687Z,100.00
2023-03-30T01:06:36.982Z,100.00
2023-03-30T01:09:05.033Z,100.00
2023-03-30T01:11:32.812Z,100.00
2023-03-30T01:14:03.268Z,100.00
2023-03-30T01:16:37.513Z,100.00
2023-03-30T01:19:43.835Z,100.00
2023-03-30T01:22:23.698Z,100.00
2023-03-30T01:25:09.623Z,100.00
2023-03-30T01:27:57.988Z,100.00
2023-03-30T01:30:55.262Z,100.00
2023-03-30T01:33:28.282Z,100.00
2023-03-30T01:36:34.208Z,100.00
2023-03-30T01:39:07.035Z,100.00
2023-03-30T01:42:09.342Z,100.00
2023-03-30T01:45:20.327Z,100.00
2023-03-30T01:47:59.766Z,100.00
2023-03-30T01:50:35.120Z,100.00
2023-03-30T01:53:13.362Z,100.00
2023-03-30T01:55:53.209Z,100.00
2023-03-30T01:58:27.347Z,100.00
2023-03-30T02:00:57.704Z,100.00
2023-03-30T02:03:31.659Z,100.00
2023-03-30T02:06:09.796Z,100.00
2023-03-30T02:08:38.302Z,100.00
2023-03-30T02:11:06.957Z,100.00
2023-03-30T02:13:36.378Z,100.00
2023-03-30T02:16:10.738Z,100.00
2023-03-30T02:18:38.789Z,100.00
2023-03-30T02:21:05.894Z,100.00
2023-03-30T02:23:37.201Z,100.00
2023-03-30T02:26:04.898Z,100.00
2023-03-30T02:28:32.236Z,100.00
2023-03-30T02:30:58.943Z,100.00
2023-03-30T02:33:42.220Z,100.00
2023-03-30T02:36:19.115Z,100.00
2023-03-30T02:39:05.207Z,100.00
2023-03-30T02:42:00.604Z,100.00
2023-03-30T02:44:56.723Z,100.00
2023-03-30T02:48:09.819Z,100.00
2023-03-30T02:50:59.534Z,100.00
2023-03-30T02:53:32.384Z,100.00
2023-03-30T02:56:07.799Z,100.00
2023-03-30T02:58:44.080Z,100.00
2023-03-30T03:01:25.702Z,100.00
2023-03-30T03:03:58.205Z,100.00
2023-03-30T03:06:27.746Z,100.00
2023-03-30T03:08:55.768Z,100.00
2023-03-30T03:11:23.239Z,100.00
2023-03-30T03:13:50.624Z,100.00
2023-03-30T03:16:17.400Z,100.00
2023-03-30T03:18:45.738Z,100.00
2023-03-30T03:21:14.032Z,100.00
2023-03-30T03:23:42.676Z,100.00
2023-03-30T03:26:11.640Z,100.00
2023-03-30T03:28:38.388Z,100.00
2023-03-30T03:31:06.507Z,100.00
2023-03-30T03:33:33.858Z,100.00
2023-03-30T03:36:02.177Z,100.00
2023-03-30T03:38:29.648Z,100.00
2023-03-30T03:40:58.195Z,100.00
2023-03-30T03:43:27.206Z,100.00
2023-03-30T03:45:53.955Z,100.00
2023-03-30T03:48:23.906Z,100.00
2023-03-30T03:50:52.770Z,100.00
2023-03-30T03:53:20.962Z,100.00
2023-03-30T03:55:47.617Z,100.00
2023-03-30T03:58:16.041Z,100.00
2023-03-30T04:00:42.843Z,100.00
2023-03-30T04:03:10.261Z,100.00
2023-03-30T04:05:36.879Z,100.00
2023-03-30T04:08:05.808Z,100.00
2023-03-30T04:10:32.478Z,100.00
2023-03-30T04:13:00.276Z,100.00
2023-03-30T04:15:28.886Z,100.00
2023-03-30T04:17:59.374Z,100.00
2023-03-30T04:20:29.057Z,100.00
2023-03-30T04:22:57.050Z,100.00
2023-03-30T04:25:26.889Z,100.00
2023-03-30T04:27:53.603Z,100.00
2023-03-30T04:30:23.116Z,100.00
2023-03-30T04:33:03.245Z,100.00
2023-03-30T04:35:31.829Z,100.00
2023-03-30T04:37:58.815Z,100.00
2023-03-30T04:40:25.524Z,100.00
2023-03-30T04:42:52.570Z,100.00
2023-03-30T04:45:19.663Z,100.00
2023-03-30T04:47:47.554Z,100.00
2023-03-30T04:50:15.780Z,100.00
2023-03-30T04:52:42.444Z,100.00
2023-03-30T04:55:13.021Z,100.00
2023-03-30T04:57:40.045Z,100.00
2023-03-30T05:00:09.292Z,100.00
2023-03-30T05:02:36.628Z,100.00
2023-03-30T05:05:03.444Z,100.00
2023-03-30T05:07:31.313Z,100.00
2023-03-30T05:09:59.438Z,100.00
2023-03-30T05:12:26.216Z,100.00
2023-03-30T05:14:52.918Z,100.00
2023-03-30T05:17:19.512Z,100.00
2023-03-30T05:19:46.783Z,100.00
2023-03-30T05:22:14.667Z,100.00
2023-03-30T05:24:41.397Z,100.00
2023-03-30T05:27:08.065Z,100.00
2023-03-30T05:29:34.651Z,100.00
2023-03-30T05:32:01.563Z,100.00
2023-03-30T05:34:28.251Z,100.00
2023-03-30T05:36:56.244Z,100.00
2023-03-30T05:39:24.579Z,100.00
2023-03-30T05:41:51.168Z,100.00
2023-03-30T05:44:21.907Z,100.00
2023-03-30T05:46:49.178Z,100.00
2023-03-30T05:49:17.374Z,100.00
2023-03-30T05:51:44.008Z,100.00
2023-03-30T05:54:13.871Z,100.00
2023-03-30T05:56:43.572Z,100.00
2023-03-30T05:59:11.693Z,100.00
2023-03-30T06:01:38.624Z,100.00
2023-03-30T06:04:08.173Z,100.00
2023-03-30T06:06:34.865Z,100.00
2023-03-30T06:09:04.003Z,100.00
2023-03-30T06:11:31.877Z,100.00
2023-03-30T06:14:00.151Z,100.00
2023-03-30T06:16:30.180Z,100.00
2023-03-30T06:18:58.405Z,100.00
2023-03-30T06:21:25.302Z,100.00
2023-03-30T06:23:53.321Z,100.00
2023-03-30T06:26:19.993Z,100.00
2023-03-30T06:28:46.641Z,100.00
2023-03-30T06:31:13.360Z,100.00
2023-03-30T06:33:41.971Z,100.00
2023-03-30T06:36:13.606Z,100.00
2023-03-30T06:38:42.595Z,100.00
2023-03-30T06:41:11.929Z,100.00
2023-03-30T06:43:39.517Z,100.00
2023-03-30T06:46:08.540Z,100.00
2023-03-30T06:48:35.764Z,100.00
2023-03-30T06:51:03.981Z,100.00
2023-03-30T06:53:30.793Z,100.00
2023-03-30T06:55:59.120Z,100.00
2023-03-30T06:58:28.969Z,100.00
2023-03-30T07:00:55.830Z,100.00
2023-03-30T07:03:22.640Z,100.00
2023-03-30T07:05:50.793Z,100.00
2023-03-30T07:08:21.472Z,100.00
2023-03-30T07:10:48.647Z,100.00
2023-03-30T07:13:18.051Z,100.00
2023-03-30T07:15:46.099Z,100.00
2023-03-30T07:18:13.643Z,100.00
2023-03-30T07:20:40.484Z,100.00
2023-03-30T07:23:07.811Z,100.00
2023-03-30T07:25:34.470Z,100.00
2023-03-30T07:28:02.199Z,100.00
2023-03-30T07:30:29.096Z,100.00
2023-03-30T07:32:58.328Z,100.00
2023-03-30T07:35:25.591Z,100.00
2023-03-30T07:38:01.979Z,100.00
2023-03-30T07:40:42.436Z,100.00
2023-03-30T07:43:10.452Z,100.00
2023-03-30T07:45:37.030Z,100.00
2023-03-30T07:48:03.892Z,100.00
2023-03-30T07:50:30.900Z,100.00
2023-03-30T07:52:57.552Z,100.00
2023-03-30T07:55:24.472Z,100.00
2023-03-30T07:57:51.486Z,100.00
2023-03-30T08:00:19.243Z,100.00
2023-03-30T08:02:45.887Z,100.00
2023-03-30T08:05:13.850Z,100.00
2023-03-30T08:07:40.677Z,100.00
2023-03-30T08:10:09.734Z,100.00
2023-03-30T08:12:36.550Z,100.00
2023-03-30T08:15:04.121Z,100.00
2023-03-30T08:17:32.439Z,100.00
2023-03-30T08:20:00.609Z,100.00
2023-03-30T08:22:27.221Z,100.00
2023-03-30T08:24:55.219Z,100.00
2023-03-30T08:27:21.828Z,100.00
2023-03-30T08:29:50.726Z,100.00
2023-03-30T08:32:17.652Z,100.00
2023-03-30T08:34:44.766Z,100.00
2023-03-30T08:37:12.357Z,100.00
2023-03-30T08:39:39.632Z,100.00
2023-03-30T08:42:28.940Z,100.00
2023-03-30T08:45:03.329Z,100.00
2023-03-30T08:47:33.892Z,100.00
2023-03-30T08:50:26.698Z,100.00
2023-03-30T08:52:53.338Z,100.00
2023-03-30T08:55:24.329Z,100.00
2023-03-30T08:57:54.116Z,100.00
2023-03-30T09:00:34.109Z,100.00
2023-03-30T09:03:27.235Z,100.00
2023-03-30T09:06:00.155Z,100.00
2023-03-30T09:08:29.710Z,100.00
2023-03-30T09:11:01.742Z,100.00
2023-03-30T09:13:33.874Z,100.00
2023-03-30T09:16:22.743Z,100.00
2023-03-30T09:18:54.823Z,100.00
2023-03-30T09:21:25.185Z,100.00
2023-03-30T09:23:53.800Z,100.00
2023-03-30T09:26:46.047Z,100.00
2023-03-30T09:29:22.217Z,100.00
2023-03-30T09:31:54.858Z,100.00
2023-03-30T09:34:41.661Z,100.00
2023-03-30T09:37:22.837Z,100.00
2023-03-30T09:39:50.383Z,97.88
2023-03-30T09:42:35.814Z,96.54
2023-03-30T09:45:16.219Z,94.36
2023-03-30T09:47:44.351Z,93.74
2023-03-30T09:50:17.191Z,93.74
2023-03-30T09:52:57.459Z,90.12
2023-03-30T09:55:32.578Z,86.48
2023-03-30T09:58:20.492Z,84.62
2023-03-30T10:01:14.128Z,84.09
2023-03-30T10:03:42.640Z,84.06
2023-03-30T10:06:17.540Z,83.39
2023-03-30T10:08:51.374Z,82.10
2023-03-30T10:11:30.408Z,80.08
2023-03-30T10:13:58.330Z,81.94
2023-03-30T10:16:28.725Z,80.63
2023-03-30T10:19:00.825Z,80.41
2023-03-30T10:21:39.168Z,82.11
2023-03-30T10:24:11.434Z,82.05
2023-03-30T10:26:39.764Z,81.00
2023-03-30T10:29:18.005Z,80.29
2023-03-30T10:31:48.425Z,79.59
2023-03-30T10:34:37.004Z,80.08
2023-03-30T10:37:10.992Z,78.69
2023-03-30T10:39:41.068Z,80.34
2023-03-30T10:42:12.609Z,78.71
2023-03-30T10:44:49.815Z,78.36
2023-03-30T10:47:36.026Z,77.47
2023-03-30T10:50:37.362Z,76.59
2023-03-30T10:53:22.120Z,77.03
2023-03-30T10:56:20.200Z,75.95
2023-03-30T10:59:02.203Z,76.29
2023-03-30T11:01:50.687Z,75.89
2023-03-30T11:04:34.054Z,75.51
2023-03-30T11:07:02.768Z,73.72
2023-03-30T11:09:36.691Z,75.43
2023-03-30T11:12:16.717Z,74.21
2023-03-30T11:14:49.244Z,76.04
2023-03-30T11:17:44.807Z,76.20
2023-03-30T11:20:20.875Z,73.41
2023-03-30T11:23:02.137Z,73.26
2023-03-30T11:25:46.006Z,73.78
2023-03-30T11:28:32.642Z,73.76
2023-03-30T11:31:09.012Z,74.67
2023-03-30T11:33:53.821Z,71.01
2023-03-30T11:36:33.728Z,69.07
2023-03-30T11:39:29.097Z,70.06
2023-03-30T11:42:09.183Z,68.84
2023-03-30T11:44:36.577Z,67.46
2023-03-30T11:47:29.790Z,66.68
2023-03-30T11:50:14.615Z,66.47
2023-03-30T11:52:53.475Z,63.61
2023-03-30T11:55:50.551Z,67.44
2023-03-30T11:58:35.540Z,66.89
2023-03-30T12:01:11.483Z,67.22
2023-03-30T12:03:56.735Z,66.44
2023-03-30T12:06:31.223Z,66.60
2023-03-30T12:09:04.811Z,66.74
2023-03-30T12:11:38.585Z,67.92
2023-03-30T12:14:41.297Z,67.50
2023-03-30T12:17:33.447Z,68.76
2023-03-30T12:20:18.690Z,67.71
2023-03-30T12:22:52.979Z,67.18
2023-03-30T12:25:52.050Z,67.66
2023-03-30T12:28:29.905Z,68.01
2023-03-30T12:31:11.364Z,66.73
2023-03-30T12:33:48.555Z,66.40
2023-03-30T12:36:26.236Z,67.87
2023-03-30T12:38:57.676Z,68.02
2023-03-30T12:41:27.117Z,66.71
2023-03-30T12:44:09.083Z,65.97
2023-03-30T12:46:44.740Z,67.74
2023-03-30T12:49:41.165Z,68.16
2023-03-30T12:52:33.822Z,69.74
2023-03-30T12:55:22.536Z,70.63
2023-03-30T12:58:10.153Z,69.36
2023-03-30T13:01:04.793Z,69.94
2023-03-30T13:03:40.952Z,68.25
2023-03-30T13:06:30.487Z,67.45
2023-03-30T13:09:15.637Z,68.06
2023-03-30T13:12:08.249Z,66.69
2023-03-30T13:14:40.432Z,67.65
2023-03-30T13:17:19.057Z,68.26
2023-03-30T13:20:15.546Z,68.68
2023-03-30T13:23:11.705Z,69.34
2023-03-30T13:25:59.049Z,70.28
2023-03-30T13:28:32.507Z,69.99
2023-03-30T13:31:09.403Z,69.65
2023-03-30T13:33:42.428Z,69.67
2023-03-30T13:36:24.212Z,70.00
2023-03-30T13:39:27.828Z,71.11
2023-03-30T13:42:20.729Z,70.21
2023-03-30T13:44:57.340Z,69.85
2023-03-30T13:47:42.467Z,68.32
2023-03-30T13:50:31.885Z,68.21
2023-03-30T13:53:02.931Z,68.22
2023-03-30T13:55:44.865Z,70.08
2023-03-30T13:58:17.992Z,69.65
2023-03-30T14:00:55.948Z,69.68
2023-03-30T14:03:30.714Z,68.51
2023-03-30T14:06:08.739Z,67.80
2023-03-30T14:08:38.886Z,68.21
2023-03-30T14:11:18.501Z,67.33
2023-03-30T14:13:49.311Z,69.28
2023-03-30T14:16:25.881Z,69.15
2023-03-30T14:18:54.388Z,69.74
2023-03-30T14:21:24.100Z,70.40
2023-03-30T14:23:55.046Z,69.40
2023-03-30T14:26:27.869Z,69.27
2023-03-30T14:29:06.270Z,69.65
2023-03-30T14:31:41.865Z,69.39
2023-03-30T14:34:28.417Z,70.16
2023-03-30T14:36:58.773Z,69.33
2023-03-30T14:39:25.608Z,70.99
2023-03-30T14:41:53.040Z,71.50
2023-03-30T14:44:24.239Z,68.03
2023-03-30T14:46:55.561Z,68.50
2023-03-30T14:49:28.531Z,67.64
2023-03-30T14:52:21.559Z,67.04
2023-03-30T14:55:02.519Z,68.72
2023-03-30T14:57:43.749Z,68.87
2023-03-30T15:00:21.080Z,68.47
2023-03-30T15:02:57.050Z,68.11
2023-03-30T15:05:28.580Z,68.35
2023-03-30T15:07:55.878Z,68.64
2023-03-30T15:10:37.212Z,65.51
2023-03-30T15:13:09.011Z,66.08
2023-03-30T15:15:36.062Z,65.63
2023-03-30T15:18:05.446Z,66.69
2023-03-30T15:20:32.252Z,66.56
2023-03-30T15:23:00.487Z,65.48
2023-03-30T15:25:36.459Z,66.05
2023-03-30T15:28:11.727Z,65.62
2023-03-30T15:30:42.506Z,65.81
2023-03-30T15:33:35.872Z,64.52
2023-03-30T15:36:12.702Z,66.45
2023-03-30T15:38:58.771Z,66.72
2023-03-30T15:41:48.846Z,67.56
2023-03-30T15:44:20.363Z,68.61
2023-03-30T15:46:49.765Z,69.73
2023-03-30T15:49:19.683Z,70.42
2023-03-30T15:51:48.493Z,70.30
2023-03-30T15:54:19.586Z,72.09
2023-03-30T15:56:49.223Z,72.39
2023-03-30T15:59:19.794Z,72.77
2023-03-30T16:01:55.991Z,73.76
2023-03-30T16:04:24.859Z,73.90
2023-03-30T16:06:53.922Z,75.21
2023-03-30T16:09:22.414Z,75.18
2023-03-30T16:11:49.978Z,75.57
2023-03-30T16:14:22.362Z,75.98
2023-03-30T16:16:49.158Z,75.54
2023-03-30T16:19:19.193Z,77.15
2023-03-30T16:21:46.263Z,77.03
2023-03-30T16:24:13.155Z,76.43
2023-03-30T16:26:39.819Z,77.85
2023-03-30T16:29:19.552Z,77.32
2023-03-30T16:31:46.267Z,78.89
2023-03-30T16:34:12.928Z,78.92
2023-03-30T16:36:39.540Z,79.30
2023-03-30T16:39:17.897Z,80.18
2023-03-30T16:41:44.877Z,80.91
2023-03-30T16:44:12.525Z,82.46
2023-03-30T16:46:40.731Z,82.20
2023-03-30T16:49:18.031Z,82.74
2023-03-30T16:51:44.937Z,83.85
2023-03-30T16:54:27.284Z,84.31
2023-03-30T16:57:02.272Z,85.35
2023-03-30T16:59:31.218Z,85.65
2023-03-30T17:01:59.015Z,85.66
2023-03-30T17:04:26.520Z,86.72
2023-03-30T17:06:55.800Z,87.32
2023-03-30T17:09:23.379Z,87.54
2023-03-30T17:11:50.406Z,88.64
2023-03-30T17:14:18.893Z,90.55
2023-03-30T17:16:46.760Z,90.45
2023-03-30T17:19:14.597Z,91.97
2023-03-30T17:21:43.551Z,93.54
2023-03-30T17:24:11.262Z,93.69
2023-03-30T17:26:38.550Z,96.81
2023-03-30T17:29:06.470Z,99.35
2023-03-30T17:31:33.255Z,98.03
2023-03-30T17:33:59.945Z,100.00
2023-03-30T17:36:28.655Z,100.00
2023-03-30T17:38:55.396Z,100.00
2023-03-30T17:41:23.323Z,100.00
2023-03-30T17:43:49.951Z,100.00
2023-03-30T17:46:18.786Z,100.00
2023-03-30T17:48:46.179Z,100.00
2023-03-30T17:51:12.821Z,100.00
2023-03-30T17:53:39.487Z,100.00
2023-03-30T17:56:07.926Z,100.00
2023-03-30T17:58:36.805Z,100.00
2023-03-30T18:01:06.401Z,100.00
2023-03-30T18:03:33.872Z,100.00
2023-03-30T18:06:02.119Z,100.00
2023-03-30T18:08:30.817Z,100.00
2023-03-30T18:10:59.026Z,100.00
2023-03-30T18:13:27.728Z,100.00
2023-03-30T18:15:56.275Z,100.00
2023-03-30T18:18:25.276Z,100.00
2023-03-30T18:20:59.023Z,100.00
2023-03-30T18:23:25.942Z,100.00
2023-03-30T18:25:53.816Z,100.00
2023-03-30T18:28:28.021Z,100.00
2023-03-30T18:30:57.420Z,100.00
2023-03-30T18:33:24.915Z,100.00
2023-03-30T18:35:53.224Z,100.00
2023-03-30T18:38:21.723Z,100.00
2023-03-30T18:40:50.647Z,100.00
2023-03-30T18:43:17.641Z,100.00
2023-03-30T18:45:46.847Z,100.00
2023-03-30T18:48:16.650Z,100.00
2023-03-30T18:50:49.605Z,100.00
2023-03-30T18:53:24.512Z,100.00
2023-03-30T18:55:53.688Z,100.00
2023-03-30T18:58:26.407Z,100.00
2023-03-30T19:00:54.374Z,100.00
2023-03-30T19:03:22.354Z,100.00
2023-03-30T19:05:50.300Z,100.00
2023-03-30T19:08:22.188Z,100.00
2023-03-30T19:10:51.547Z,100.00
2023-03-30T19:13:20.373Z,100.00
2023-03-30T19:15:48.503Z,100.00
2023-03-30T19:18:18.956Z,100.00
2023-03-30T19:20:46.105Z,100.00
2023-03-30T19:23:14.903Z,100.00
2023-03-30T19:25:43.372Z,100.00
2023-03-30T19:28:11.065Z,100.00
2023-03-30T19:30:39.920Z,100.00
2023-03-30T19:33:09.797Z,100.00
2023-03-30T19:35:36.527Z,100.00
2023-03-30T19:38:03.474Z,100.00
2023-03-30T19:40:30.156Z,100.00
2023-03-30T19:42:56.947Z,100.00
2023-03-30T19:45:24.079Z,100.00
2023-03-30T19:47:51.518Z,100.00
2023-03-30T19:50:21.476Z,100.00
2023-03-30T19:52:50.158Z,100.00
2023-03-30T19:55:19.152Z,100.00
2023-03-30T19:57:46.533Z,100.00
2023-03-30T20:00:16.164Z,100.00
2023-03-30T20:02:47.862Z,100.00
2023-03-30T20:05:15.858Z,100.00
2023-03-30T20:07:44.278Z,100.00
2023-03-30T20:10:13.841Z,100.00
2023-03-30T20:12:40.622Z,100.00
2023-03-30T20:15:08.303Z,100.00
2023-03-30T20:17:36.405Z,100.00
2023-03-30T20:20:09.167Z,100.00
2023-03-30T20:22:37.453Z,100.00
2023-03-30T20:25:08.440Z,100.00
2023-03-30T20:27:36.212Z,100.00
2023-03-30T20:30:04.913Z,100.00
2023-03-30T20:32:31.779Z,100.00
2023-03-30T20:34:58.703Z,100.00
2023-03-30T20:37:25.359Z,100.00
2023-03-30T20:39:52.039Z,100.00
2023-03-30T20:42:26.162Z,100.00
2023-03-30T20:44:53.499Z,100.00
2023-03-30T20:47:23.530Z,100.00
2023-03-30T20:49:50.343Z,100.00
2023-03-30T20:52:17.104Z,100.00
2023-03-30T20:54:44.762Z,100.00
2023-03-30T20:57:12.770Z,100.00
2023-03-30T20:59:41.098Z,100.00
2023-03-30T21:02:07.807Z,100.00
2023-03-30T21:04:34.515Z,100.00
2023-03-30T21:07:01.495Z,100.00
2023-03-30T21:09:28.750Z,100.00
2023-03-30T21:11:55.563Z,100.00
2023-03-30T21:14:24.095Z,100.00
2023-03-30T21:16:51.047Z,100.00
2023-03-30T21:19:17.687Z,100.00
2023-03-30T21:21:44.721Z,100.00
2023-03-30T21:24:12.946Z,100.00
2023-03-30T21:26:40.501Z,100.00
2023-03-30T21:29:07.133Z,100.00
2023-03-30T21:31:33.885Z,100.00
2023-03-30T21:34:00.904Z,100.00
2023-03-30T21:36:27.670Z,100.00
2023-03-30T21:38:56.216Z,100.00
2023-03-30T21:41:24.384Z,100.00
2023-03-30T21:43:51.153Z,100.00
2023-03-30T21:46:22.191Z,100.00
2023-03-30T21:48:53.300Z,100.00
2023-03-30T21:51:27.677Z,100.00
2023-03-30T21:53:55.960Z,100.00
2023-03-30T21:56:24.343Z,100.00
2023-03-30T21:58:52.217Z,100.00
2023-03-30T22:01:21.512Z,100.00
2023-03-30T22:03:48.373Z,100.00
2023-03-30T22:06:17.271Z,100.00
2023-03-30T22:08:45.551Z,100.00
2023-03-30T22:11:14.282Z,100.00
2023-03-30T22:13:41.097Z,100.00
2023-03-30T22:16:29.021Z,100.00
2023-03-30T22:18:55.974Z,100.00
2023-03-30T22:21:24.939Z,100.00
2023-03-30T22:23:54.693Z,100.00
2023-03-30T22:26:22.315Z,100.00
2023-03-30T22:28:49.087Z,100.00
2023-03-30T22:31:16.786Z,100.00
2023-03-30T22:33:43.932Z,100.00
2023-03-30T22:36:16.698Z,100.00
2023-03-30T22:38:44.411Z,100.00
2023-03-30T22:41:12.836Z,100.00
2023-03-30T22:43:39.507Z,100.00
2023-03-30T22:46:06.809Z,100.00
2023-03-30T22:48:34.156Z,100.00
2023-03-30T22:51:08.163Z,100.00
2023-03-30T22:53:35.373Z,100.00
2023-03-30T22:56:02.069Z,100.00
2023-03-30T22:58:28.763Z,100.00
2023-03-30T23:01:12.166Z,100.00
2023-03-30T23:03:40.245Z,100.00
2023-03-30T23:06:07.814Z,100.00
2023-03-30T23:08:34.979Z,100.00
2023-03-30T23:11:05.017Z,100.00
2023-03-30T23:13:33.595Z,100.00
2023-03-30T23:16:00.219Z,100.00
2023-03-30T23:18:28.690Z,100.00
2023-03-30T23:20:59.032Z,100.00
2023-03-30T23:23:25.742Z,100.00
2023-03-30T23:25:52.670Z,100.00
2023-03-30T23:28:19.557Z,100.00
2023-03-30T23:30:46.446Z,100.00
2023-03-30T23:33:13.551Z,100.00
2023-03-30T23:35:44.287Z,100.00
2023-03-30T23:38:11.572Z,100.00
2023-03-30T23:40:38.160Z,100.00
2023-03-30T23:43:04.766Z,100.00
2023-03-30T23:45:31.685Z,100.00
2023-03-30T23:47:59.339Z,100.00
2023-03-30T23:50:28.957Z,100.00
2023-03-30T23:52:56.905Z,100.00
2023-03-30T23:55:24.548Z,100.00
2023-03-30T23:57:51.249Z,100.00
